Time;durP1;ratioP1;P1;durP2;ratioP2;P2;SDS_P1;SDS_P2;PMS_P1;PMS_P2;Temp;Humidity;BMP_temperature;BMP_pressure;BME280_temperature;BME280_humidity;BME280_pressure;Samples;Min_cycle;Max_cycle;Signal;HPM_P1;HPM_P2
2021/03/01 00:01:38;;;;;;;69.55;35.55;;;;;;;5.61;69.62;101674.91;4942342;28;20113;-78
2021/03/01 00:04:05;;;;;;;77.95;37.15;;;;;;;5.68;69.17;101680.44;4940979;28;21061;-81
2021/03/01 00:06:32;;;;;;;72.47;35.35;;;;;;;5.78;68.70;101678.22;4917105;28;20511;-78
2021/03/01 00:09:00;;;;;;;75.40;35.67;;;;;;;5.74;68.84;101671.13;4861581;29;20067;-82
2021/03/01 00:11:27;;;;;;;65.82;32.60;;;;;;;5.71;68.92;101677.94;4900789;29;20102;-81
2021/03/01 00:13:54;;;;;;;67.82;33.20;;;;;;;5.69;69.03;101677.03;4887406;29;20167;-79
2021/03/01 00:16:21;;;;;;;62.67;33.35;;;;;;;5.67;68.63;101677.75;4879706;29;20166;-79
2021/03/01 00:18:48;;;;;;;64.47;31.95;;;;;;;5.65;68.69;101682.00;4890916;29;20079;-81
2021/03/01 00:21:15;;;;;;;56.03;29.92;;;;;;;5.71;68.42;101677.06;4869329;29;20553;-78
2021/03/01 00:23:43;;;;;;;63.05;30.00;;;;;;;5.66;68.59;101681.16;4874225;29;20052;-80
2021/03/01 00:26:10;;;;;;;60.80;30.20;;;;;;;5.59;69.16;101673.94;4896843;29;20051;-79
2021/03/01 00:28:37;;;;;;;64.03;31.20;;;;;;;5.64;68.73;101681.13;4877855;29;20071;-78
2021/03/01 00:31:04;;;;;;;63.70;28.90;;;;;;;5.77;69.04;101677.34;4910154;29;20052;-79
2021/03/01 00:33:31;;;;;;;69.80;32.70;;;;;;;5.99;70.00;101679.19;4886075;29;20099;-80
2021/03/01 00:35:59;;;;;;;77.15;34.80;;;;;;;6.30;70.02;101678.75;4889571;29;20114;-78
2021/03/01 00:38:27;;;;;;;85.93;36.67;;;;;;;6.45;69.65;101679.38;4921065;28;20074;-80
2021/03/01 00:40:58;;;;;;;84.53;36.67;;;;;;;6.44;69.28;101680.22;4890675;29;20050;-81
2021/03/01 00:43:30;;;;;;;79.38;34.85;;;;;;;6.37;69.32;101679.09;4878092;29;20063;-82
2021/03/01 00:45:57;;;;;;;64.60;30.40;;;;;;;6.03;68.28;101682.00;4904607;29;20043;-83
2021/03/01 00:48:25;;;;;;;59.55;31.40;;;;;;;5.85;67.60;101680.28;4907749;28;20133;-81
2021/03/01 00:50:52;;;;;;;72.05;31.00;;;;;;;5.98;67.03;101673.13;4937500;28;20047;-80
2021/03/01 00:53:26;;;;;;;71.20;33.67;;;;;;;5.91;67.29;101665.88;4919974;28;20055;-78
2021/03/01 00:55:54;;;;;;;64.30;29.80;;;;;;;5.81;68.37;101668.88;4929143;28;20051;-79
2021/03/01 00:58:21;;;;;;;62.47;30.63;;;;;;;5.87;68.59;101670.88;4934525;28;20071;-81
2021/03/01 01:00:51;;;;;;;68.07;31.05;;;;;;;5.84;68.71;101663.84;4940320;28;20061;-79
2021/03/01 01:03:19;;;;;;;64.75;30.92;;;;;;;5.76;69.19;101659.09;4911115;28;20051;-82
2021/03/01 01:05:47;;;;;;;65.75;30.23;;;;;;;5.54;69.45;101659.88;4923980;28;20047;-82
2021/03/01 01:08:13;;;;;;;61.50;29.27;;;;;;;5.62;68.87;101658.50;4919192;28;20086;-81
2021/03/01 01:10:42;;;;;;;63.17;25.65;;;;;;;5.51;68.24;101659.78;4910624;29;20383;-80
2021/03/01 01:13:08;;;;;;;48.10;27.20;;;;;;;5.38;67.90;101658.31;4941061;28;20078;-78
2021/03/01 01:15:37;;;;;;;41.90;23.23;;;;;;;5.17;67.03;101650.50;4946268;28;20055;-77
2021/03/01 01:18:05;;;;;;;46.00;24.00;;;;;;;5.14;67.13;101663.28;4938142;28;20055;-76
2021/03/01 01:20:33;;;;;;;46.85;25.65;;;;;;;5.02;66.64;101661.84;4953451;28;20055;-79
2021/03/01 01:23:01;;;;;;;51.75;24.95;;;;;;;4.95;67.04;101652.00;4947288;28;20534;-78
2021/03/01 01:25:28;;;;;;;50.83;26.10;;;;;;;4.94;67.10;101658.03;4966732;28;20062;-77
2021/03/01 01:27:55;;;;;;;48.97;26.88;;;;;;;4.54;68.56;101657.84;4945412;28;20134;-77
2021/03/01 01:30:24;;;;;;;58.50;30.30;;;;;;;4.68;68.31;101654.19;4959024;28;20138;-77
2021/03/01 01:32:52;;;;;;;58.33;29.73;;;;;;;4.44;68.99;101658.19;4950498;28;20058;-77
2021/03/01 01:35:20;;;;;;;59.42;29.48;;;;;;;4.61;68.73;101650.41;4936140;28;20061;-77
2021/03/01 01:37:49;;;;;;;62.83;31.75;;;;;;;4.49;69.35;101648.94;4953502;28;20042;-77
2021/03/01 01:40:20;;;;;;;67.72;33.38;;;;;;;4.66;68.83;101643.75;4935238;28;20835;-78
2021/03/01 01:42:52;;;;;;;74.60;34.83;;;;;;;4.66;68.81;101646.34;4955159;28;20061;-78
2021/03/01 01:45:24;;;;;;;72.93;35.97;;;;;;;4.68;69.24;101649.91;4944577;28;20307;-77
2021/03/01 01:47:52;;;;;;;82.00;40.70;;;;;;;4.71;69.30;101643.97;4962750;28;20058;-77
2021/03/01 01:50:21;;;;;;;79.68;37.97;;;;;;;4.80;69.13;101636.63;4955060;28;20236;-76
2021/03/01 01:52:50;;;;;;;83.07;40.08;;;;;;;4.73;70.04;101635.47;4940847;28;20787;-78
2021/03/01 01:55:19;;;;;;;79.70;41.35;;;;;;;4.83;69.73;101636.81;4944782;28;20185;-78
2021/03/01 01:57:46;;;;;;;86.47;39.92;;;;;;;4.79;70.00;101628.00;4958833;28;20182;-77
2021/03/01 02:00:32;;;;;;;83.10;39.63;;;;;;;4.49;70.38;101633.44;4942082;28;20089;-76
2021/03/01 02:03:38;;;;;;;80.65;39.60;;;;;;;4.62;69.88;101628.91;4947970;28;20174;-76
2021/03/01 02:06:14;;;;;;;75.20;36.92;;;;;;;4.70;69.34;101627.56;4958602;28;20054;-77
2021/03/01 02:09:10;;;;;;;66.57;33.50;;;;;;;4.71;69.30;101616.38;4946297;28;20050;-76
2021/03/01 02:12:09;;;;;;;60.60;30.08;;;;;;;4.70;69.48;101614.59;4963111;28;20141;-77
2021/03/01 02:15:06;;;;;;;60.92;29.38;;;;;;;4.73;69.38;101619.06;4962389;28;20051;-76
2021/03/01 02:17:33;;;;;;;69.15;28.85;;;;;;;4.68;69.64;101620.53;4962984;28;20565;-77
2021/03/01 02:20:01;;;;;;;56.67;28.25;;;;;;;4.90;68.87;101612.06;4960697;28;20474;-79
2021/03/01 02:22:27;;;;;;;67.85;28.58;;;;;;;4.91;69.09;101608.66;4962797;28;20047;-77
2021/03/01 02:25:01;;;;;;;56.47;28.45;;;;;;;4.74;69.82;101607.91;4959981;28;20054;-77
2021/03/01 02:27:31;;;;;;;61.15;28.15;;;;;;;4.71;69.93;101598.25;4960478;28;20510;-77
2021/03/01 02:30:04;;;;;;;60.85;30.67;;;;;;;4.71;70.20;101602.56;4980070;28;20042;-77
2021/03/01 02:32:36;;;;;;;60.92;31.02;;;;;;;4.63;70.11;101607.38;4958974;28;20486;-77
2021/03/01 02:35:06;;;;;;;54.30;28.80;;;;;;;4.72;69.69;101601.75;4942900;28;20156;-77
2021/03/01 02:37:38;;;;;;;61.25;26.23;;;;;;;4.65;69.47;101600.56;4959212;28;20149;-78
2021/03/01 02:40:08;;;;;;;56.05;27.15;;;;;;;4.46;69.39;101605.69;4956778;28;20574;-78
2021/03/01 02:42:37;;;;;;;59.45;29.30;;;;;;;4.59;69.09;101607.16;4975644;28;20049;-77
2021/03/01 02:45:06;;;;;;;50.38;24.60;;;;;;;4.59;68.89;101600.28;4960010;28;20047;-77
2021/03/01 02:47:33;;;;;;;51.63;24.88;;;;;;;4.54;69.34;101598.31;4959190;28;20054;-77
2021/03/01 02:50:01;;;;;;;54.20;27.40;;;;;;;4.83;69.01;101598.84;4945497;28;20049;-77
2021/03/01 02:52:29;;;;;;;54.60;25.80;;;;;;;4.79;69.32;101598.63;4942808;28;20065;-76
2021/03/01 02:54:57;;;;;;;60.22;28.17;;;;;;;4.84;69.55;101592.81;4962318;28;20077;-76
2021/03/01 02:57:25;;;;;;;60.83;28.17;;;;;;;4.97;69.79;101596.88;4954333;28;20055;-77
2021/03/01 02:59:54;;;;;;;73.28;33.60;;;;;;;5.00;70.35;101596.13;4964104;28;20534;-77
2021/03/01 03:02:23;;;;;;;63.17;28.67;;;;;;;4.80;69.60;101590.91;4953382;28;20058;-76
2021/03/01 03:04:52;;;;;;;57.80;25.58;;;;;;;4.58;69.97;101603.69;4958937;28;20103;-77
2021/03/01 03:07:20;;;;;;;55.22;26.52;;;;;;;4.57;69.42;101594.16;4940155;28;20078;-77
2021/03/01 03:09:47;;;;;;;49.63;24.27;;;;;;;4.43;69.33;101589.13;4956227;28;20039;-77
2021/03/01 03:12:15;;;;;;;42.95;22.65;;;;;;;4.32;69.74;101591.19;4955665;28;20387;-77
2021/03/01 03:14:44;;;;;;;46.80;23.30;;;;;;;4.25;70.23;101592.63;4958230;28;20057;-77
2021/03/01 03:17:12;;;;;;;46.47;23.17;;;;;;;4.32;70.21;101588.63;4958503;28;20074;-76
2021/03/01 03:19:41;;;;;;;45.05;22.38;;;;;;;4.42;69.94;101589.94;4959023;28;20429;-77
2021/03/01 03:22:09;;;;;;;43.17;22.48;;;;;;;4.41;69.89;101591.66;4956478;28;20063;-77
2021/03/01 03:24:36;;;;;;;49.85;24.05;;;;;;;4.41;69.75;101585.59;4957630;28;20122;-77
2021/03/01 03:27:03;;;;;;;48.30;23.67;;;;;;;4.14;70.83;101593.81;4960033;28;20271;-76
2021/03/01 03:29:31;;;;;;;47.50;24.00;;;;;;;4.31;70.42;101590.34;4958838;28;20649;-77
2021/03/01 03:31:58;;;;;;;45.90;23.42;;;;;;;4.24;69.91;101588.25;4978945;28;20720;-76
2021/03/01 03:34:25;;;;;;;48.10;22.65;;;;;;;3.91;70.26;101591.78;4952052;28;20083;-76
2021/03/01 03:37:02;;;;;;;37.00;20.33;;;;;;;4.02;70.42;101582.88;4961972;28;20104;-77
2021/03/01 03:39:34;;;;;;;39.58;19.88;;;;;;;4.09;70.12;101579.75;4953221;28;20058;-78
2021/03/01 03:42:03;;;;;;;43.90;20.23;;;;;;;4.05;70.27;101588.19;4956117;28;20054;-78
2021/03/01 03:44:33;;;;;;;36.83;19.17;;;;;;;4.05;70.53;101584.72;4943609;28;20059;-78
2021/03/01 03:47:01;;;;;;;35.58;19.10;;;;;;;4.21;69.92;101582.06;4956968;28;20066;-78
2021/03/01 03:49:30;;;;;;;40.90;19.10;;;;;;;4.20;69.91;101580.28;4956802;28;20089;-77
2021/03/01 03:51:59;;;;;;;39.72;19.63;;;;;;;4.21;69.96;101576.88;4956947;28;20058;-77
2021/03/01 03:54:30;;;;;;;39.30;19.23;;;;;;;4.09;70.47;101578.88;4944914;28;20462;-77
2021/03/01 03:57:01;;;;;;;39.33;19.88;;;;;;;3.91;70.76;101578.88;4943423;28;20089;-77
2021/03/01 03:59:31;;;;;;;37.80;18.58;;;;;;;3.99;70.68;101576.63;4953958;28;20062;-77
2021/03/01 04:01:58;;;;;;;40.35;18.73;;;;;;;3.88;70.93;101578.72;4955636;28;20105;-77
2021/03/01 04:04:27;;;;;;;34.92;17.70;;;;;;;4.13;70.26;101576.50;4956582;28;20066;-78
2021/03/01 04:06:57;;;;;;;38.55;16.33;;;;;;;3.78;71.07;101579.97;4960124;28;20043;-77
2021/03/01 04:09:26;;;;;;;40.97;18.17;;;;;;;4.02;71.13;101579.41;4940599;28;20077;-77
2021/03/01 04:11:55;;;;;;;31.40;17.17;;;;;;;3.90;71.98;101566.75;4943144;28;20077;-77
2021/03/01 04:14:24;;;;;;;35.00;16.50;;;;;;;3.90;71.84;101567.63;4957597;28;20145;-77
2021/03/01 04:16:58;;;;;;;30.50;14.25;;;;;;;3.89;70.93;101564.97;4956211;28;20054;-77
2021/03/01 04:19:27;;;;;;;30.52;14.23;;;;;;;4.00;70.72;101558.63;4954189;28;20793;-77
2021/03/01 04:21:57;;;;;;;30.73;13.35;;;;;;;3.72;71.44;101560.66;4939058;28;20054;-77
2021/03/01 04:24:25;;;;;;;36.70;14.77;;;;;;;3.51;72.20;101558.78;4952087;28;20071;-77
2021/03/01 04:26:52;;;;;;;23.35;12.13;;;;;;;3.65;70.79;101561.16;4956378;28;20133;-77
2021/03/01 04:29:21;;;;;;;23.02;10.88;;;;;;;3.93;70.08;101561.75;4956591;28;20165;-78
2021/03/01 04:31:50;;;;;;;34.58;11.80;;;;;;;3.78;69.82;101563.56;4937366;28;20105;-78
2021/03/01 04:34:18;;;;;;;23.88;10.63;;;;;;;3.62;70.03;101558.44;4955726;28;20062;-78
2021/03/01 04:36:45;;;;;;;18.52;9.88;;;;;;;3.59;69.84;101560.88;4956778;28;20050;-77
2021/03/01 04:39:13;;;;;;;18.80;9.50;;;;;;;3.61;69.46;101565.28;4957506;28;20058;-77
2021/03/01 04:41:42;;;;;;;29.42;12.43;;;;;;;3.48;69.71;101561.22;4959514;28;20050;-77
2021/03/01 04:44:11;;;;;;;35.58;17.58;;;;;;;3.45;70.39;101561.03;4976428;28;20141;-78
2021/03/01 04:46:38;;;;;;;40.25;19.15;;;;;;;3.53;70.45;101561.44;4957277;28;20087;-78
2021/03/01 04:49:06;;;;;;;42.38;18.67;;;;;;;3.47;70.87;101559.44;4954564;28;20061;-78
2021/03/01 04:51:34;;;;;;;26.35;15.30;;;;;;;3.26;72.14;101558.34;4942863;28;20051;-77
2021/03/01 04:54:01;;;;;;;36.17;14.13;;;;;;;3.38;71.85;101556.38;4944230;28;20531;-77
2021/03/01 04:56:29;;;;;;;30.98;14.38;;;;;;;3.49;71.26;101559.53;4961654;28;20059;-77
2021/03/01 04:58:57;;;;;;;28.80;14.65;;;;;;;3.54;71.28;101555.47;4955555;28;20046;-77
2021/03/01 05:01:25;;;;;;;33.90;17.10;;;;;;;3.53;71.15;101553.69;4942242;28;20050;-77
2021/03/01 05:03:52;;;;;;;36.80;17.83;;;;;;;3.47;71.42;101562.03;4943770;28;20050;-78
2021/03/01 05:06:20;;;;;;;34.17;15.40;;;;;;;3.62;71.04;101558.44;4971965;28;20058;-77
2021/03/01 05:08:48;;;;;;;25.30;12.27;;;;;;;3.41;70.19;101558.22;4957902;28;20145;-78
2021/03/01 05:11:36;;;;;;;26.90;13.30;;;;;;;3.55;70.07;101561.53;4970219;28;20051;-78
2021/03/01 05:14:05;;;;;;;20.88;11.55;;;;;;;3.28;70.12;101556.72;4952399;28;20047;-77
2021/03/01 05:16:33;;;;;;;25.50;11.35;;;;;;;3.09;70.34;101559.16;4958081;28;20146;-77
2021/03/01 05:19:00;;;;;;;25.35;11.40;;;;;;;3.05;70.07;101555.53;4940812;28;20046;-78
2021/03/01 05:21:27;;;;;;;26.45;10.93;;;;;;;2.93;70.50;101556.56;4943478;28;20815;-78
2021/03/01 05:23:54;;;;;;;39.00;15.98;;;;;;;2.77;70.85;101557.47;4959544;28;20524;-78
2021/03/01 05:26:22;;;;;;;141.70;24.50;;;;;;;2.77;71.28;101552.31;4941463;28;20132;-78
2021/03/01 05:28:48;;;;;;;90.63;34.35;;;;;;;3.00;70.39;101553.53;4958146;28;20058;-78
2021/03/01 05:31:14;;;;;;;82.22;37.78;;;;;;;3.10;70.30;101558.38;4960363;28;20529;-78
2021/03/01 05:33:42;;;;;;;88.25;36.97;;;;;;;3.03;70.29;101554.56;4952798;28;20081;-77
2021/03/01 05:36:09;;;;;;;67.75;35.22;;;;;;;3.03;70.38;101558.84;4959441;28;20066;-78
2021/03/01 05:38:35;;;;;;;77.60;38.25;;;;;;;2.99;70.49;101554.31;4955288;28;20055;-78
2021/03/01 05:41:03;;;;;;;120.15;37.28;;;;;;;2.59;71.18;101552.19;4942694;28;20153;-78
2021/03/01 05:43:30;;;;;;;80.30;38.45;;;;;;;2.82;70.80;101556.03;4963033;28;20059;-76
2021/03/01 05:45:58;;;;;;;83.30;37.53;;;;;;;2.80;71.74;101554.16;4974231;28;20058;-76
2021/03/01 05:48:27;;;;;;;74.07;37.40;;;;;;;2.98;70.70;101558.59;4977016;28;20063;-76
2021/03/01 05:51:02;;;;;;;116.38;40.30;;;;;;;2.52;71.81;101559.53;4941579;28;20463;-77
2021/03/01 05:53:31;;;;;;;84.97;42.13;;;;;;;2.83;71.27;101562.09;4958879;28;20133;-77
2021/03/01 05:55:59;;;;;;;106.28;43.03;;;;;;;2.74;71.42;101561.56;4942211;28;20404;-76
2021/03/01 05:58:27;;;;;;;114.50;44.30;;;;;;;2.57;72.05;101556.41;4942867;28;20398;-76
2021/03/01 06:00:58;;;;;;;125.07;46.13;;;;;;;3.01;71.46;101560.47;4957021;28;20046;-77
2021/03/01 06:03:27;;;;;;;259.08;50.05;;;;;;;2.72;72.57;101555.44;4958307;28;20073;-77
2021/03/01 06:05:54;;;;;;;104.43;47.50;;;;;;;3.07;72.29;101553.03;4957171;28;20054;-77
2021/03/01 06:08:21;;;;;;;85.30;49.00;;;;;;;3.21;72.41;101559.81;4976050;28;20046;-77
2021/03/01 06:10:47;;;;;;;92.57;50.47;;;;;;;3.43;72.06;101557.50;4953922;28;20513;-77
2021/03/01 06:13:16;;;;;;;182.90;52.33;;;;;;;3.46;71.99;101554.19;4964315;28;20057;-77
2021/03/01 06:15:43;;;;;;;183.57;53.72;;;;;;;3.34;72.17;101551.00;4960351;28;20151;-77
2021/03/01 06:18:11;;;;;;;93.90;49.17;;;;;;;3.75;72.01;101547.88;4958091;28;20134;-78
2021/03/01 06:20:40;;;;;;;118.93;51.38;;;;;;;3.50;72.35;101553.56;4961300;28;20034;-77
2021/03/01 06:23:08;;;;;;;96.72;47.45;;;;;;;3.34;72.70;101551.00;4962401;28;20057;-77
2021/03/01 06:25:35;;;;;;;87.80;45.42;;;;;;;3.80;71.49;101542.13;4959161;28;20066;-77
2021/03/01 06:28:06;;;;;;;93.00;44.15;;;;;;;3.73;71.36;101542.66;4967289;28;20134;-77
2021/03/01 06:30:35;;;;;;;65.65;33.13;;;;;;;3.89;71.11;101544.28;4967353;28;20066;-77
2021/03/01 06:33:05;;;;;;;77.57;35.97;;;;;;;3.74;70.80;101543.56;4960460;28;20113;-77
2021/03/01 06:35:48;;;;;;;87.97;39.70;;;;;;;3.85;70.59;101540.66;4964922;28;20059;-77
2021/03/01 06:38:24;;;;;;;86.38;40.53;;;;;;;3.95;70.47;101542.88;4961507;28;20041;-77
2021/03/01 06:41:13;;;;;;;91.88;40.22;;;;;;;4.04;70.08;101544.13;4964744;28;20047;-77
2021/03/01 06:44:01;;;;;;;87.57;39.22;;;;;;;4.08;70.21;101548.63;4960890;28;20046;-77
2021/03/01 06:46:33;;;;;;;87.55;41.25;;;;;;;4.25;70.12;101545.19;4964638;28;20057;-77
2021/03/01 06:49:12;;;;;;;;;;;;;;;4.28;70.10;101543.59;4963694;28;20046;-77
2021/03/01 06:51:47;;;;;;;99.30;44.63;;;;;;;4.27;70.37;101554.75;4981975;28;19977;-78
2021/03/01 06:54:24;;;;;;;114.18;47.80;;;;;;;4.30;70.20;101547.16;4968813;28;20051;-78
2021/03/01 06:56:50;;;;;;;106.05;46.90;;;;;;;4.50;70.38;101553.28;4981074;28;20430;-78
2021/03/01 06:59:18;;;;;;;98.80;47.60;;;;;;;4.54;70.35;101542.25;4970214;28;20052;-78
2021/03/01 07:01:53;;;;;;;101.65;46.75;;;;;;;4.48;70.54;101551.41;4967155;28;20050;-77
2021/03/01 07:04:24;;;;;;;98.50;48.65;;;;;;;4.65;70.26;101553.97;4959730;28;20046;-78
2021/03/01 07:06:55;;;;;;;92.20;47.83;;;;;;;4.70;70.31;101547.28;4967808;28;20049;-77
2021/03/01 07:09:24;;;;;;;99.47;48.63;;;;;;;4.68;71.09;101553.22;4960471;28;20502;-77
2021/03/01 07:11:51;;;;;;;150.82;48.17;;;;;;;4.62;70.99;101553.84;4965501;28;20347;-77
2021/03/01 07:14:19;;;;;;;101.60;48.92;;;;;;;4.82;70.46;101562.50;4957674;28;20442;-77
2021/03/01 07:16:57;;;;;;;107.13;46.25;;;;;;;4.98;70.62;101565.00;4960679;28;20082;-77
2021/03/01 07:19:27;;;;;;;88.15;45.15;;;;;;;4.95;70.65;101564.84;4957753;28;21073;-77
2021/03/01 07:21:58;;;;;;;99.30;46.85;;;;;;;5.10;70.20;101565.53;4964494;28;20141;-78
2021/03/01 07:24:28;;;;;;;113.63;46.30;;;;;;;5.02;70.29;101564.31;4959089;28;20089;-78
2021/03/01 07:26:57;;;;;;;95.40;45.10;;;;;;;5.03;70.67;101568.69;4965713;28;20141;-77
2021/03/01 07:29:24;;;;;;;108.68;46.90;;;;;;;4.91;70.34;101567.22;4962264;28;20519;-77
2021/03/01 07:31:56;;;;;;;93.88;44.90;;;;;;;4.93;70.86;101571.66;4965545;28;20050;-77
2021/03/01 07:34:24;;;;;;;119.25;46.47;;;;;;;5.11;70.54;101567.31;4955634;28;20126;-78
2021/03/01 07:36:53;;;;;;;90.28;45.17;;;;;;;5.24;70.55;101574.78;4964801;28;20059;-78
2021/03/01 07:39:20;;;;;;;99.35;45.10;;;;;;;5.32;70.46;101574.25;4957160;28;20054;-78
2021/03/01 07:41:47;;;;;;;91.05;43.70;;;;;;;5.35;70.14;101580.44;4960914;28;20063;-78
2021/03/01 07:44:14;;;;;;;89.65;43.67;;;;;;;5.52;70.21;101578.56;4957647;28;20120;-77
2021/03/01 07:46:46;;;;;;;89.78;42.97;;;;;;;5.51;70.16;101577.72;4964104;28;20078;-78
2021/03/01 07:49:38;;;;;;;103.32;42.20;;;;;;;5.13;70.50;101578.59;4961364;28;20063;-78
2021/03/01 07:52:05;;;;;;;92.78;40.95;;;;;;;5.55;70.23;101578.72;4957687;28;20138;-78
2021/03/01 07:55:05;;;;;;;88.72;40.05;;;;;;;5.50;70.20;101573.34;4964928;28;20522;-78
2021/03/01 07:57:36;;;;;;;86.90;40.70;;;;;;;5.56;70.02;101568.38;4971741;28;20134;-77
2021/03/01 08:00:21;;;;;;;91.65;42.45;;;;;;;5.41;70.24;101570.34;4964667;28;20121;-78
2021/03/01 08:02:48;;;;;;;87.95;39.78;;;;;;;5.57;69.83;101572.75;4972815;28;20129;-78
2021/03/01 08:05:32;;;;;;;99.88;43.10;;;;;;;5.44;70.13;101567.88;4964254;28;20070;-78
2021/03/01 08:07:59;;;;;;;89.20;41.45;;;;;;;5.48;70.76;101574.06;4966764;28;20065;-78
2021/03/01 08:10:26;;;;;;;112.53;44.17;;;;;;;5.34;70.48;101573.47;4979221;28;20104;-77
2021/03/01 08:13:00;;;;;;;92.03;42.00;;;;;;;5.71;70.39;101570.75;4965297;28;20066;-77
2021/03/01 08:15:30;;;;;;;96.60;42.65;;;;;;;5.72;70.21;101575.13;4959611;28;20061;-77
2021/03/01 08:17:58;;;;;;;102.78;41.10;;;;;;;5.92;69.57;101573.38;4965635;28;20053;-76
2021/03/01 08:20:29;;;;;;;88.80;42.67;;;;;;;5.90;69.75;101575.91;4942474;28;21065;-76
2021/03/01 08:23:02;;;;;;;97.45;41.60;;;;;;;6.05;69.63;101573.94;4977376;28;20062;-76
2021/03/01 08:25:44;;;;;;;98.18;42.28;;;;;;;6.25;69.07;101577.34;4951992;28;20085;-77
2021/03/01 08:28:16;;;;;;;100.65;41.50;;;;;;;6.35;69.08;101584.69;4959934;28;20047;-77
2021/03/01 08:30:47;;;;;;;87.53;40.83;;;;;;;6.44;69.05;101586.75;4962163;28;20068;-76
2021/03/01 08:33:15;;;;;;;93.95;41.40;;;;;;;6.67;68.43;101585.94;4952707;28;20043;-77
2021/03/01 08:35:44;;;;;;;98.22;40.78;;;;;;;6.06;69.35;101583.50;4963181;28;20058;-76
2021/03/01 08:38:13;;;;;;;101.78;43.53;;;;;;;5.97;69.41;101590.03;4959338;28;20043;-77
2021/03/01 08:40:54;;;;;;;97.72;41.42;;;;;;;6.37;68.56;101579.56;4963075;28;20383;-77
2021/03/01 08:43:34;;;;;;;89.15;43.15;;;;;;;6.19;69.91;101581.44;4961457;28;20157;-76
2021/03/01 08:46:00;;;;;;;98.85;43.72;;;;;;;6.47;69.59;101581.69;4975471;28;20113;-78
2021/03/01 08:48:27;;;;;;;101.15;43.92;;;;;;;6.64;69.03;101582.34;4959480;28;20054;-75
2021/03/01 08:50:55;;;;;;;110.25;43.80;;;;;;;6.87;69.14;101586.69;4968970;28;20109;-77
2021/03/01 08:53:27;;;;;;;90.93;41.00;;;;;;;7.01;68.74;101585.50;4958763;28;20045;-76
2021/03/01 08:55:56;;;;;;;90.70;38.10;;;;;;;7.27;68.24;101579.53;4975233;28;20142;-76
2021/03/01 08:58:23;;;;;;;89.45;37.90;;;;;;;7.35;68.25;101588.47;4953620;28;20042;-77
2021/03/01 09:00:55;;;;;;;78.55;38.70;;;;;;;7.39;68.67;101592.97;4981778;28;20055;-77
2021/03/01 09:03:38;;;;;;;86.32;39.65;;;;;;;7.40;69.22;101584.34;4959721;28;20054;-78
2021/03/01 09:06:16;;;;;;;89.32;37.88;;;;;;;7.62;68.32;101593.78;4964209;28;20506;-77
2021/03/01 09:08:43;;;;;;;84.97;40.45;;;;;;;7.70;68.47;101594.03;4962116;28;20489;-78
2021/03/01 09:11:14;;;;;;;91.57;40.25;;;;;;;7.77;68.02;101589.09;4954406;28;20046;-76
2021/03/01 09:13:43;;;;;;;81.70;38.85;;;;;;;7.87;68.15;101587.69;4979313;28;20093;-78
2021/03/01 09:16:15;;;;;;;79.68;37.65;;;;;;;7.78;68.11;101580.47;4963573;28;20106;-79
2021/03/01 09:18:46;;;;;;;89.70;39.67;;;;;;;7.93;68.23;101592.22;4943609;28;20086;-79
2021/03/01 09:21:20;;;;;;;84.70;39.20;;;;;;;8.19;67.71;101591.38;4975999;28;22007;-79
2021/03/01 09:23:51;;;;;;;93.43;41.08;;;;;;;8.07;68.21;101589.22;4944203;28;20498;-78
2021/03/01 09:26:27;;;;;;;74.85;36.28;;;;;;;8.37;67.05;101593.69;4961829;28;20179;-81
2021/03/01 09:29:15;;;;;;;88.50;39.53;;;;;;;8.21;68.06;101587.06;4961623;28;20051;-78
2021/03/01 09:31:45;;;;;;;78.20;37.10;;;;;;;8.50;67.78;101588.91;4950879;28;20055;-80
2021/03/01 09:34:18;;;;;;;75.60;36.97;;;;;;;8.79;66.96;101589.81;4962945;28;20058;-80
2021/03/01 09:37:08;;;;;;;76.82;36.58;;;;;;;8.93;66.09;101582.41;4967927;28;20109;-80
2021/03/01 09:39:38;;;;;;;74.13;36.17;;;;;;;8.96;66.36;101586.00;4972680;28;20055;-81
2021/03/01 09:42:05;;;;;;;69.35;32.88;;;;;;;8.86;67.44;101583.06;4966161;28;20043;-80
2021/03/01 09:44:35;;;;;;;69.10;34.60;;;;;;;9.10;66.17;101582.06;4949807;28;20138;-85
2021/03/01 09:47:03;;;;;;;70.75;33.17;;;;;;;9.09;65.67;101587.22;4947542;28;20066;-82
2021/03/01 09:49:34;;;;;;;64.55;33.05;;;;;;;9.33;64.71;101580.09;4969785;28;20074;-82
2021/03/01 09:52:02;;;;;;;63.78;30.70;;;;;;;9.42;64.02;101589.91;4968499;28;21918;-82
2021/03/01 09:54:29;;;;;;;65.82;29.98;;;;;;;9.20;64.95;101580.59;4963135;28;20379;-78
2021/03/01 09:57:02;;;;;;;64.40;30.15;;;;;;;9.39;65.12;101588.09;4986058;28;20133;-83
2021/03/01 09:59:35;;;;;;;65.18;30.38;;;;;;;8.84;65.31;101588.22;4959737;28;20088;-80
2021/03/01 10:02:14;;;;;;;67.20;29.48;;;;;;;8.35;67.24;101585.81;4960738;28;20371;-77
2021/03/01 10:04:43;;;;;;;74.78;28.55;;;;;;;7.82;69.04;101592.72;4977941;28;20053;-77
2021/03/01 10:07:28;;;;;;;70.47;29.05;;;;;;;8.21;68.16;101593.16;4982322;28;20077;-78
2021/03/01 10:09:56;;;;;;;70.80;30.48;;;;;;;7.97;68.84;101600.16;4961123;28;20047;-78
2021/03/01 10:12:24;;;;;;;75.05;28.17;;;;;;;7.41;71.05;101590.44;4947375;28;20051;-79
2021/03/01 10:14:58;;;;;;;73.07;30.45;;;;;;;7.85;69.48;101591.97;4972968;28;20081;-82
2021/03/01 10:17:28;;;;;;;69.35;31.90;;;;;;;7.83;70.12;101589.31;4945937;28;20066;-79
2021/03/01 10:20:12;;;;;;;66.25;31.75;;;;;;;7.61;70.52;101585.94;4953275;28;20047;-82
2021/03/01 10:23:05;;;;;;;83.80;35.40;;;;;;;7.16;72.20;101599.03;4966162;28;20062;-79
2021/03/01 10:25:50;;;;;;;94.43;33.88;;;;;;;7.06;72.63;101590.84;4950107;28;20046;-78
2021/03/01 10:28:25;;;;;;;98.50;34.35;;;;;;;7.05;72.83;101600.34;4963625;28;20050;-80
2021/03/01 10:31:03;;;;;;;82.72;32.15;;;;;;;7.28;72.57;101591.72;4963330;28;20043;-76
2021/03/01 10:33:30;;;;;;;87.75;31.05;;;;;;;7.48;71.98;101586.34;4950919;28;20063;-77
2021/03/01 10:36:11;;;;;;;60.27;27.73;;;;;;;7.99;70.72;101582.00;4963234;28;20557;-77
2021/03/01 10:38:51;;;;;;;65.82;29.45;;;;;;;8.10;70.28;101586.75;4943131;28;20396;-79
2021/03/01 10:41:22;;;;;;;74.25;32.00;;;;;;;8.56;69.27;101583.03;4927981;28;20047;-79
2021/03/01 10:43:50;;;;;;;78.72;31.45;;;;;;;8.34;69.93;101575.38;4940604;28;20058;-78
2021/03/01 10:46:28;;;;;;;91.32;39.63;;;;;;;8.65;69.68;101583.31;4931857;28;20040;-80
2021/03/01 10:48:55;;;;;;;97.80;40.67;;;;;;;8.94;68.31;101576.34;4941697;28;20071;-78
2021/03/01 10:51:21;;;;;;;89.22;38.33;;;;;;;9.13;67.77;101576.03;4939606;28;20483;-78
2021/03/01 10:53:49;;;;;;;93.03;40.03;;;;;;;9.27;67.67;101579.91;4913837;28;20055;-78
2021/03/01 10:56:16;;;;;;;87.32;36.38;;;;;;;9.27;67.57;101582.53;4927324;28;20083;-75
2021/03/01 10:58:45;;;;;;;94.13;39.10;;;;;;;9.27;67.05;101574.69;4929872;28;20405;-77
2021/03/01 11:01:11;;;;;;;82.68;36.03;;;;;;;9.62;66.86;101583.50;4925121;29;20399;-77
2021/03/01 11:03:38;;;;;;;68.70;31.80;;;;;;;9.50;65.69;101580.53;4936498;28;20518;-77
2021/03/01 11:06:05;;;;;;;62.67;30.25;;;;;;;9.73;65.53;101584.66;4940018;28;20054;-76
2021/03/01 11:08:50;;;;;;;87.45;34.40;;;;;;;9.42;66.64;101582.94;4942582;28;20050;-77
2021/03/01 11:11:17;;;;;;;82.20;29.95;;;;;;;8.65;68.88;101586.78;4955922;28;20046;-81
2021/03/01 11:13:50;;;;;;;68.13;29.02;;;;;;;9.18;66.80;101577.06;4971238;28;20055;-82
2021/03/01 11:16:17;;;;;;;81.90;30.98;;;;;;;8.96;66.80;101577.28;4964766;28;20054;-78
2021/03/01 11:18:45;;;;;;;112.40;34.70;;;;;;;8.44;68.73;101586.13;4949536;28;20051;-83
2021/03/01 11:21:12;;;;;;;86.07;31.67;;;;;;;8.57;68.64;101575.25;4969053;28;20053;-78
2021/03/01 11:23:40;;;;;;;90.45;33.10;;;;;;;8.85;68.44;101571.75;4959097;28;20485;-79
2021/03/01 11:26:07;;;;;;;107.53;33.75;;;;;;;8.40;69.35;101568.63;4949596;28;20161;-78
2021/03/01 11:30:21;;;;;;;101.75;30.13;;;;;;;8.08;71.24;101571.91;5041130;27;20409;-77
2021/03/01 11:32:48;;;;;;;96.60;30.52;;;;;;;7.46;72.69;101573.28;5060335;28;20079;-81
2021/03/01 11:35:15;;;;;;;88.63;30.00;;;;;;;7.35;73.07;101572.00;5057003;28;20120;-80